| time (UTC) | temp F | wind direction | speed MPH | gust MPH | rain 1hr in | rain 24hr in | rain mn in | humidity % | barometer mb |
| 20260505024715 | 69 | 243 | 2.0 | 7.0 | 0.00 | 0.00 | 0.00 | 66 | 997.2 |
| 20260505024217 | 70 | 225 | 2.0 | 7.0 | 0.00 | 0.00 | 0.00 | 65 | 997.1 |
| 20260505023717 | 70 | 224 | 2.0 | 5.0 | 0.00 | 0.00 | 0.00 | 65 | 997.2 |
| 20260505023214 | 70 | 216 | 2.0 | 6.0 | 0.00 | 0.00 | 0.00 | 64 | 997.0 |
| 20260505022943 | 70 | 250 | 2.0 | 8.0 | 0.00 | 0.00 | 0.00 | 64 | 997.0 |
| 20260505022212 | 71 | 217 | 3.0 | 9.0 | 0.00 | 0.00 | 0.00 | 64 | 997.0 |
| 20260505021712 | 71 | 224 | 3.0 | 9.0 | 0.00 | 0.00 | 0.00 | 63 | 996.9 |
| 20260505021212 | 71 | 252 | 3.0 | 7.0 | 0.00 | 0.00 | 0.00 | 63 | 996.8 |
| 20260505020710 | 71 | 243 | 3.0 | 7.0 | 0.00 | 0.00 | 0.00 | 63 | 996.7 |
| 20260505020211 | 71 | 254 | 2.0 | 7.0 | 0.00 | 0.00 | 0.00 | 63 | 996.8 |
| 20260505015710 | 71 | 260 | 2.0 | 6.0 | 0.00 | 0.00 | 0.00 | 62 | 996.8 |
| 20260505015208 | 71 | 245 | 2.0 | 7.0 | 0.00 | 0.00 | 0.00 | 62 | 996.7 |
| 20260505014708 | 72 | 283 | 2.0 | 7.0 | 0.00 | 0.00 | 0.00 | 62 | 996.6 |
| 20260505014209 | 72 | 227 | 2.0 | 6.0 | 0.00 | 0.00 | 0.00 | 61 | 996.6 |
| 20260505013706 | 72 | 246 | 3.0 | 8.0 | 0.00 | 0.00 | 0.00 | 60 | 996.5 |
| 20260505013207 | 73 | 252 | 3.0 | 8.0 | 0.00 | 0.00 | 0.00 | 60 | 996.5 |
| 20260505012707 | 73 | 236 | 3.0 | 11.0 | 0.00 | 0.00 | 0.00 | 60 | 996.5 |
| 20260505012205 | 73 | 214 | 4.0 | 14.0 | 0.00 | 0.00 | 0.00 | 59 | 996.3 |
| 20260505011700 | 73 | 254 | 4.0 | 14.0 | 0.00 | 0.00 | 0.00 | 59 | 996.3 |
| 20260505011154 | 73 | 221 | 4.0 | 13.0 | 0.00 | 0.00 | 0.00 | 59 | 996.2 |
| 20260505010648 | 74 | 264 | 4.0 | 10.0 | 0.00 | 0.00 | 0.00 | 59 | 996.1 |
| 20260505010142 | 74 | 232 | 4.0 | 10.0 | 0.00 | 0.00 | 0.00 | 58 | 996.1 |
| 20260505005907 | 74 | 288 | 5.0 | 9.0 | 0.00 | 0.00 | 0.00 | 58 | 996.1 |
| 20260505005129 | 74 | 257 | 4.0 | 10.0 | 0.00 | 0.00 | 0.00 | 58 | 996.1 |
| 20260505004624 | 74 | 175 | 4.0 | 11.0 | 0.00 | 0.00 | 0.00 | 58 | 996.1 |
| 20260505004118 | 75 | 255 | 4.0 | 11.0 | 0.00 | 0.00 | 0.00 | 57 | 996.1 |
| 20260505003611 | 75 | 296 | 4.0 | 13.0 | 0.00 | 0.00 | 0.00 | 56 | 996.1 |
| 20260505003336 | 76 | 236 | 5.0 | 13.0 | 0.00 | 0.00 | 0.00 | 56 | 996.0 |
| 20260505003101 | 76 | 234 | 6.0 | 13.0 | 0.00 | 0.00 | 0.00 | 55 | 996.0 |
| 20260505002053 | 76 | 245 | 6.0 | 13.0 | 0.00 | 0.00 | 0.00 | 54 | 996.0 |
| 20260505001547 | 77 | 213 | 7.0 | 15.0 | 0.00 | 0.00 | 0.00 | 53 | 995.9 |
| 20260505001543 | 77 | 281 | 6.0 | 15.0 | 0.00 | 0.00 | 0.00 | 53 | 995.8 |
| 20260505000536 | 78 | 274 | 5.0 | 12.0 | 0.00 | 0.00 | 0.00 | 52 | 995.9 |
| 20260505000029 | 78 | 304 | 5.0 | 12.0 | 0.00 | 0.00 | 0.00 | 52 | 995.9 |
| 20260504235524 | 78 | 241 | 6.0 | 15.0 | 0.00 | 0.00 | 0.00 | 52 | 995.9 |
| 20260504235018 | 78 | 308 | 6.0 | 19.0 | 0.00 | 0.00 | 0.00 | 51 | 995.9 |
| 20260504234511 | 78 | 210 | 6.0 | 19.0 | 0.00 | 0.00 | 0.00 | 51 | 996.0 |
| 20260504234237 | 78 | 226 | 8.0 | 18.0 | 0.00 | 0.00 | 0.00 | 51 | 996.0 |
| 20260504233459 | 78 | 256 | 7.0 | 22.0 | 0.00 | 0.00 | 0.00 | 51 | 996.1 |
| 20260504232953 | 79 | 222 | 6.0 | 18.0 | 0.00 | 0.00 | 0.00 | 51 | 996.2 |
| 20260504232447 | 79 | 243 | 5.0 | 15.0 | 0.00 | 0.00 | 0.00 | 51 | 996.1 |
| 20260504231941 | 79 | 242 | 7.0 | 18.0 | 0.00 | 0.00 | 0.00 | 51 | 996.2 |
| 20260504231436 | 79 | 354 | 7.0 | 18.0 | 0.00 | 0.00 | 0.00 | 51 | 996.2 |
| 20260504230929 | 80 | 220 | 7.0 | 17.0 | 0.00 | 0.00 | 0.00 | 50 | 996.3 |
| 20260504230655 | 80 | 250 | 7.0 | 19.0 | 0.00 | 0.00 | 0.00 | 49 | 996.3 |
| 20260504225922 | 80 | 251 | 6.0 | 19.0 | 0.00 | 0.00 | 0.00 | 49 | 996.3 |
| 20260504225422 | 80 | 284 | 5.0 | 14.0 | 0.00 | 0.00 | 0.00 | 49 | 996.3 |
| 20260504224922 | 81 | 217 | 4.0 | 13.0 | 0.00 | 0.00 | 0.00 | 49 | 996.3 |
| 20260504224653 | 81 | 282 | 5.0 | 13.0 | 0.00 | 0.00 | 0.00 | 49 | 996.3 |
| 20260504223922 | 80 | 275 | 7.0 | 18.0 | 0.00 | 0.00 | 0.00 | 51 | 996.3 |
| 20260504223423 | 80 | 270 | 8.0 | 19.0 | 0.00 | 0.00 | 0.00 | 50 | 996.3 |
| 20260504223153 | 80 | 209 | 7.0 | 19.0 | 0.00 | 0.00 | 0.00 | 50 | 996.4 |
| 20260504222422 | 80 | 242 | 7.0 | 17.0 | 0.00 | 0.00 | 0.00 | 49 | 996.4 |
| 20260504221921 | 80 | 219 | 8.0 | 17.0 | 0.00 | 0.00 | 0.00 | 49 | 996.5 |
| 20260504221653 | 80 | 181 | 9.0 | 19.0 | 0.00 | 0.00 | 0.00 | 49 | 996.5 |
| 20260504221153 | 80 | 241 | 8.0 | 19.0 | 0.00 | 0.00 | 0.00 | 49 | 996.5 |
| 20260504220653 | 80 | 253 | 7.0 | 17.0 | 0.00 | 0.00 | 0.00 | 49 | 996.5 |
| 20260504215922 | 81 | 253 | 7.0 | 20.0 | 0.00 | 0.00 | 0.00 | 49 | 996.6 |
| 20260504215652 | 81 | 250 | 8.0 | 20.0 | 0.00 | 0.00 | 0.00 | 49 | 996.5 |
| 20260504214923 | 81 | 293 | 7.0 | 19.0 | 0.00 | 0.00 | 0.00 | 48 | 996.6 |
| 20260504214422 | 82 | 252 | 4.0 | 14.0 | 0.00 | 0.00 | 0.00 | 49 | 996.6 |
| 20260504213921 | 81 | 344 | 5.0 | 14.0 | 0.00 | 0.00 | 0.00 | 48 | 996.5 |
| 20260504213422 | 81 | 252 | 6.0 | 18.0 | 0.00 | 0.00 | 0.00 | 49 | 996.6 |
| 20260504212922 | 80 | 256 | 7.0 | 18.0 | 0.00 | 0.00 | 0.00 | 50 | 996.6 |
| 20260504212422 | 81 | 235 | 7.0 | 17.0 | 0.00 | 0.00 | 0.00 | 48 | 996.7 |
| 20260504211926 | 81 | 242 | 8.0 | 20.0 | 0.00 | 0.00 | 0.00 | 50 | 996.8 |
| 20260504211922 | 82 | 241 | 7.0 | 19.0 | 0.00 | 0.00 | 0.00 | 47 | 996.7 |
| 20260504210920 | 80 | 246 | 9.0 | 20.0 | 0.00 | 0.00 | 0.00 | 48 | 996.7 |
| 20260504210420 | 81 | 288 | 8.0 | 20.0 | 0.00 | 0.00 | 0.00 | 48 | 996.7 |
| 20260504205920 | 82 | 159 | 6.0 | 15.0 | 0.00 | 0.00 | 0.00 | 48 | 996.8 |
| 20260504205419 | 82 | 270 | 7.0 | 21.0 | 0.00 | 0.00 | 0.00 | 48 | 996.7 |
| 20260504204919 | 81 | 233 | 8.0 | 21.0 | 0.00 | 0.00 | 0.00 | 49 | 996.9 |
| 20260504204654 | 82 | 254 | 5.0 | 16.0 | 0.00 | 0.00 | 0.00 | 48 | 997.1 |
| 20260504204420 | 81 | 282 | 8.0 | 17.0 | 0.00 | 0.00 | 0.00 | 48 | 997.0 |
| 20260504203420 | 82 | 300 | 6.0 | 19.0 | 0.00 | 0.00 | 0.00 | 49 | 997.2 |
| 20260504202920 | 81 | 243 | 9.0 | 24.0 | 0.00 | 0.00 | 0.00 | 49 | 997.1 |
| 20260504202648 | 81 | 237 | 8.0 | 24.0 | 0.00 | 0.00 | 0.00 | 48 | 997.3 |
| 20260504202148 | 82 | 244 | 7.0 | 19.0 | 0.00 | 0.00 | 0.00 | 50 | 997.3 |
| 20260504201419 | 82 | 248 | 6.0 | 19.0 | 0.00 | 0.00 | 0.00 | 45 | 997.5 |
| 20260504200917 | 82 | 63 | 6.0 | 18.0 | 0.00 | 0.00 | 0.00 | 48 | 997.6 |
| 20260504200417 | 81 | 239 | 7.0 | 18.0 | 0.00 | 0.00 | 0.00 | 47 | 997.7 |
| 20260504195918 | 81 | 276 | 7.0 | 17.0 | 0.00 | 0.00 | 0.00 | 48 | 997.8 |
| 20260504195649 | 81 | 276 | 7.0 | 17.0 | 0.00 | 0.00 | 0.00 | 48 | 997.7 |
| 20260504194918 | 81 | 221 | 8.0 | 21.0 | 0.00 | 0.00 | 0.00 | 48 | 997.8 |
| 20260504194418 | 81 | 279 | 8.0 | 22.0 | 0.00 | 0.00 | 0.00 | 48 | 997.9 |
| 20260504194144 | 81 | 230 | 8.0 | 20.0 | 0.00 | 0.00 | 0.00 | 49 | 997.9 |
| 20260504193414 | 80 | 257 | 8.0 | 21.0 | 0.00 | 0.00 | 0.00 | 48 | 998.0 |
| 20260504192913 | 81 | 229 | 6.0 | 21.0 | 0.00 | 0.00 | 0.00 | 48 | 998.0 |
| 20260504192414 | 81 | 67 | 7.0 | 17.0 | 0.00 | 0.00 | 0.00 | 51 | 998.1 |
| 20260504191913 | 81 | 205 | 8.0 | 19.0 | 0.00 | 0.00 | 0.00 | 47 | 998.2 |
| 20260504191413 | 81 | 242 | 7.0 | 20.0 | 0.00 | 0.00 | 0.00 | 45 | 998.3 |
| 20260504190914 | 81 | 285 | 7.0 | 20.0 | 0.00 | 0.00 | 0.00 | 45 | 998.2 |
| 20260504190413 | 80 | 278 | 9.0 | 21.0 | 0.00 | 0.00 | 0.00 | 48 | 998.2 |
| 20260504185914 | 80 | 285 | 10.0 | 24.0 | 0.00 | 0.00 | 0.00 | 49 | 998.2 |
| 20260504185411 | 80 | 214 | 10.0 | 24.0 | 0.00 | 0.00 | 0.00 | 46 | 998.1 |
| 20260504184909 | 80 | 269 | 9.0 | 20.0 | 0.00 | 0.00 | 0.00 | 48 | 998.3 |
| 20260504184409 | 80 | 236 | 9.0 | 27.0 | 0.00 | 0.00 | 0.00 | 48 | 998.4 |
| 20260504183909 | 80 | 238 | 8.0 | 27.0 | 0.00 | 0.00 | 0.00 | 47 | 998.3 |
| 20260504183407 | 81 | 335 | 7.0 | 20.0 | 0.00 | 0.00 | 0.00 | 46 | 998.4 |
| 20260504182907 | 82 | 294 | 7.0 | 17.0 | 0.00 | 0.00 | 0.00 | 46 | 998.4 |
| 20260504182636 | 81 | 283 | 9.0 | 22.0 | 0.00 | 0.00 | 0.00 | 46 | 998.5 |
| 20260504181906 | 80 | 283 | 9.0 | 22.0 | 0.00 | 0.00 | 0.00 | 48 | 998.5 |
| 20260504181406 | 80 | 276 | 9.0 | 22.0 | 0.00 | 0.00 | 0.00 | 48 | 998.5 |
| 20260504181136 | 79 | 246 | 11.0 | 22.0 | 0.00 | 0.00 | 0.00 | 51 | 998.7 |
| 20260504180635 | 79 | 291 | 11.0 | 23.0 | 0.00 | 0.00 | 0.00 | 49 | 998.8 |
| 20260504175905 | 79 | 241 | 9.0 | 23.0 | 0.00 | 0.00 | 0.00 | 50 | 998.9 |
| 20260504175636 | 79 | 236 | 9.0 | 25.0 | 0.00 | 0.00 | 0.00 | 49 | 998.9 |
| 20260504175130 | 79 | 252 | 9.0 | 25.0 | 0.00 | 0.00 | 0.00 | 49 | 998.9 |
| 20260504174354 | 80 | 200 | 7.0 | 20.0 | 0.00 | 0.00 | 0.00 | 49 | 998.9 |
| 20260504173852 | 81 | 277 | 6.0 | 20.0 | 0.00 | 0.00 | 0.00 | 49 | 998.9 |
| 20260504173351 | 80 | 302 | 6.0 | 21.0 | 0.00 | 0.00 | 0.00 | 50 | 999.0 |
| 20260504172851 | 79 | 276 | 8.0 | 28.0 | 0.00 | 0.00 | 0.00 | 51 | 999.1 |
| 20260504172625 | 79 | 282 | 7.0 | 21.0 | 0.00 | 0.00 | 0.00 | 46 | 999.2 |
| 20260504172349 | 79 | 237 | 9.0 | 28.0 | 0.00 | 0.00 | 0.00 | 49 | 999.2 |
| 20260504171349 | 80 | 243 | 8.0 | 21.0 | 0.00 | 0.00 | 0.00 | 47 | 999.1 |
| 20260504170850 | 79 | 273 | 10.0 | 21.0 | 0.00 | 0.00 | 0.00 | 48 | 999.2 |
| 20260504170347 | 79 | 67 | 9.0 | 21.0 | 0.00 | 0.00 | 0.00 | 47 | 999.3 |
| 20260504160329 | 79 | 258 | 7.0 | 25.0 | 0.00 | 0.00 | 0.00 | 48 | 999.9 |
| 20260504150723 | 75 | 226 | 5.0 | 12.0 | 0.00 | 0.00 | 0.00 | 57 | 1000.5 |
| 20260504150448 | 75 | 125 | 4.0 | 12.0 | 0.00 | 0.00 | 0.00 | 56 | 1000.4 |
| 20260504141116 | 71 | 200 | 3.0 | 9.0 | 0.00 | 0.00 | 0.00 | 63 | 1000.9 |
| 20260504140611 | 71 | 283 | 3.0 | 9.0 | 0.00 | 0.00 | 0.00 | 65 | 1000.9 |
| 20260504140105 | 71 | 255 | 3.0 | 9.0 | 0.00 | 0.00 | 0.00 | 64 | 1000.9 |
| 20260504130541 | 64 | 248 | 1.0 | 5.0 | 0.00 | 0.00 | 0.00 | 79 | 1000.9 |
| 20260504130537 | 64 | 250 | 2.0 | 5.0 | 0.00 | 0.00 | 0.00 | 77 | 1000.8 |
| 20260504110456 | 57 | 262 | 1.0 | 3.0 | 0.00 | 0.00 | 0.00 | 86 | 1000.1 |
| 20260504081930 | 61 | 255 | 2.0 | 7.0 | 0.00 | 0.00 | 0.00 | 80 | 1000.2 |
| 20260504081701 | 61 | 243 | 2.0 | 7.0 | 0.00 | 0.00 | 0.00 | 80 | 1000.2 |
| 20260504080923 | 61 | 226 | 2.0 | 7.0 | 0.00 | 0.00 | 0.00 | 80 | 1000.3 |
| 20260504080417 | 60 | 260 | 2.0 | 6.0 | 0.00 | 0.00 | 0.00 | 81 | 1000.3 |
| 20260504080413 | 60 | 247 | 1.0 | 6.0 | 0.00 | 0.00 | 0.00 | 81 | 1000.4 |
| 20260504070305 | 61 | 262 | 2.0 | 7.0 | 0.00 | 0.00 | 0.00 | 80 | 1001.0 |
| 20260504060220 | 61 | 220 | 2.0 | 5.0 | 0.00 | 0.00 | 0.00 | 78 | 1001.8 |
| 20260504050714 | 62 | 228 | 1.0 | 5.0 | 0.00 | 0.00 | 0.00 | 76 | 1002.1 |
| 20260504050213 | 62 | 226 | 1.0 | 5.0 | 0.00 | 0.00 | 0.00 | 76 | 1002.1 |
| 20260504045713 | 62 | 242 | 2.0 | 5.0 | 0.00 | 0.00 | 0.00 | 76 | 1002.2 |
| 20260504045210 | 63 | 244 | 2.0 | 5.0 | 0.00 | 0.00 | 0.00 | 75 | 1002.2 |
| 20260504044711 | 63 | 243 | 1.0 | 3.0 | 0.00 | 0.00 | 0.00 | 75 | 1002.3 |
| 20260504044441 | 63 | 253 | 2.0 | 6.0 | 0.00 | 0.00 | 0.00 | 75 | 1002.4 |
| 20260504043941 | 63 | 233 | 1.0 | 6.0 | 0.00 | 0.00 | 0.00 | 75 | 1002.4 |
| 20260504043210 | 63 | 252 | 1.0 | 5.0 | 0.00 | 0.00 | 0.00 | 75 | 1002.4 |
| 20260504042941 | 63 | 243 | 1.0 | 7.0 | 0.00 | 0.00 | 0.00 | 75 | 1002.4 |
| 20260504042210 | 63 | 259 | 1.0 | 7.0 | 0.00 | 0.00 | 0.00 | 75 | 1002.4 |
| 20260504041710 | 63 | 224 | 0.0 | 4.0 | 0.00 | 0.00 | 0.00 | 74 | 1002.5 |
| 20260504041210 | 63 | 247 | 1.0 | 3.0 | 0.00 | 0.00 | 0.00 | 74 | 1002.6 |
| 20260504040710 | 63 | 245 | 1.0 | 3.0 | 0.00 | 0.00 | 0.00 | 73 | 1002.6 |
| 20260504040441 | 64 | 233 | 1.0 | 3.0 | 0.00 | 0.00 | 0.00 | 73 | 1002.6 |
| 20260504035711 | 64 | 251 | 1.0 | 3.0 | 0.00 | 0.00 | 0.00 | 73 | 1002.5 |
| 20260504035210 | 64 | 244 | 1.0 | 3.0 | 0.00 | 0.00 | 0.00 | 72 | 1002.5 |
| 20260504034710 | 64 | 224 | 1.0 | 3.0 | 0.00 | 0.00 | 0.00 | 72 | 1002.5 |
| 20260504034210 | 65 | 237 | 1.0 | 4.0 | 0.00 | 0.00 | 0.00 | 71 | 1002.4 |
| 20260504033710 | 65 | 231 | 1.0 | 4.0 | 0.00 | 0.00 | 0.00 | 70 | 1002.5 |
| 20260504033211 | 65 | 230 | 2.0 | 4.0 | 0.00 | 0.00 | 0.00 | 70 | 1002.5 |
| 20260504032710 | 65 | 203 | 2.0 | 4.0 | 0.00 | 0.00 | 0.00 | 70 | 1002.5 |
| 20260504032211 | 65 | 238 | 2.0 | 7.0 | 0.00 | 0.00 | 0.00 | 69 | 1002.5 |
| 20260504031711 | 66 | 236 | 2.0 | 7.0 | 0.00 | 0.00 | 0.00 | 69 | 1002.5 |
| 20260504031210 | 66 | 232 | 2.0 | 6.0 | 0.00 | 0.00 | 0.00 | 68 | 1002.6 |
| 20260504030711 | 66 | 247 | 2.0 | 6.0 | 0.00 | 0.00 | 0.00 | 68 | 1002.6 |
| 20260504030210 | 66 | 250 | 2.0 | 6.0 | 0.00 | 0.00 | 0.00 | 68 | 1002.5 |
| 20260504025711 | 66 | 244 | 2.0 | 5.0 | 0.00 | 0.00 | 0.00 | 67 | 1002.5 |
| 20260504025214 | 67 | 229 | 2.0 | 10.0 | 0.00 | 0.00 | 0.00 | 66 | 1002.5 |
| 20260504025210 | 66 | 248 | 2.0 | 10.0 | 0.00 | 0.00 | 0.00 | 67 | 1002.5 |